createdAt,value
2023-02-15T00:01:07.428Z,56.45
2023-02-15T00:03:34.305Z,56.95
2023-02-15T00:06:01.343Z,56.65
2023-02-15T00:08:28.370Z,57.18
2023-02-15T00:11:10.524Z,57.05
2023-02-15T00:13:37.357Z,58.07
2023-02-15T00:16:05.497Z,58.36
2023-02-15T00:18:32.991Z,57.39
2023-02-15T00:21:05.271Z,56.19
2023-02-15T00:23:31.983Z,58.22
2023-02-15T00:26:10.867Z,56.51
2023-02-15T00:28:38.963Z,57.06
2023-02-15T00:31:07.895Z,57.48
2023-02-15T00:33:34.984Z,55.95
2023-02-15T00:36:02.687Z,55.38
2023-02-15T00:38:30.841Z,56.20
2023-02-15T00:40:59.470Z,56.04
2023-02-15T00:43:27.504Z,56.80
2023-02-15T00:45:54.751Z,56.55
2023-02-15T00:48:22.841Z,57.17
2023-02-15T00:50:59.102Z,56.87
2023-02-15T00:53:27.376Z,57.36
2023-02-15T00:55:54.869Z,56.84
2023-02-15T00:58:22.083Z,58.58
2023-02-15T01:00:49.310Z,57.79
2023-02-15T01:03:18.272Z,57.54
2023-02-15T01:05:44.918Z,57.27
2023-02-15T01:08:11.550Z,58.11
2023-02-15T01:10:38.421Z,56.71
2023-02-15T01:13:05.508Z,56.52
2023-02-15T01:15:32.176Z,56.88
2023-02-15T01:17:58.782Z,57.30
2023-02-15T01:20:28.555Z,58.91
2023-02-15T01:22:56.121Z,59.00
2023-02-15T01:25:24.783Z,56.99
2023-02-15T01:27:51.395Z,58.08
2023-02-15T01:30:18.205Z,58.21
2023-02-15T01:32:45.110Z,59.79
2023-02-15T01:35:12.414Z,60.75
2023-02-15T01:37:39.314Z,58.65
2023-02-15T01:40:12.688Z,58.87
2023-02-15T01:42:39.400Z,58.71
2023-02-15T01:45:23.161Z,57.21
2023-02-15T01:47:53.574Z,57.60
2023-02-15T01:50:35.153Z,57.12
2023-02-15T01:53:14.975Z,57.82
2023-02-15T01:55:51.394Z,57.80
2023-02-15T01:58:19.283Z,58.81
2023-02-15T02:00:46.082Z,58.13
2023-02-15T02:03:14.303Z,59.01
2023-02-15T02:05:41.931Z,59.40
2023-02-15T02:08:09.326Z,59.30
2023-02-15T02:10:36.812Z,61.03
2023-02-15T02:13:07.416Z,59.82
2023-02-15T02:15:56.157Z,58.79
2023-02-15T02:18:38.874Z,59.99
2023-02-15T02:21:17.274Z,59.00
2023-02-15T02:24:09.712Z,61.02
2023-02-15T02:26:55.008Z,61.12
2023-02-15T02:30:11.077Z,61.74
2023-02-15T02:33:16.778Z,60.90
2023-02-15T02:36:07.294Z,60.55
2023-02-15T02:39:06.033Z,60.36
2023-02-15T02:41:51.250Z,58.90
2023-02-15T02:44:25.979Z,58.90
2023-02-15T02:46:56.376Z,57.34
2023-02-15T02:49:35.865Z,58.36
2023-02-15T02:52:06.565Z,58.26
2023-02-15T02:54:36.532Z,58.05
2023-02-15T02:57:09.630Z,58.47
2023-02-15T02:59:45.079Z,58.99
2023-02-15T03:02:18.886Z,57.35
2023-02-15T03:04:51.418Z,58.73
2023-02-15T03:07:23.777Z,59.19
2023-02-15T03:09:54.608Z,58.52
2023-02-15T03:12:35.502Z,59.11
2023-02-15T03:15:07.220Z,57.84
2023-02-15T03:17:38.741Z,61.08
2023-02-15T03:20:23.451Z,61.92
2023-02-15T03:22:59.182Z,61.83
2023-02-15T03:25:35.333Z,61.89
2023-02-15T03:28:07.972Z,59.95
2023-02-15T03:30:37.537Z,59.11
2023-02-15T03:33:07.837Z,58.37
2023-02-15T03:35:55.459Z,57.44
2023-02-15T03:38:34.813Z,58.36
2023-02-15T03:41:04.948Z,59.20
2023-02-15T03:43:44.917Z,60.25
2023-02-15T03:46:24.081Z,60.46
2023-02-15T03:49:17.627Z,61.00
2023-02-15T03:51:49.676Z,61.62
2023-02-15T03:54:36.237Z,60.52
2023-02-15T03:57:03.506Z,61.34
2023-02-15T03:59:30.196Z,61.30
2023-02-15T04:02:25.351Z,59.28
2023-02-15T04:04:51.970Z,63.08
2023-02-15T04:07:18.611Z,62.25
2023-02-15T04:09:45.231Z,61.31
2023-02-15T04:12:11.878Z,60.82
2023-02-15T04:14:56.337Z,61.32
2023-02-15T04:17:22.982Z,61.83
2023-02-15T04:19:49.705Z,59.98
2023-02-15T04:22:16.284Z,60.99
2023-02-15T04:24:42.881Z,61.49
2023-02-15T04:27:09.485Z,64.76
2023-02-15T04:29:36.173Z,67.01
2023-02-15T04:32:02.846Z,64.00
2023-02-15T04:34:29.528Z,63.22
2023-02-15T04:36:56.213Z,63.37
2023-02-15T04:39:22.906Z,64.58
2023-02-15T04:41:49.547Z,65.75
2023-02-15T04:44:16.311Z,64.79
2023-02-15T04:46:43.033Z,63.02
2023-02-15T04:49:10.143Z,62.73
2023-02-15T04:51:36.801Z,62.96
2023-02-15T04:54:03.454Z,65.29
2023-02-15T04:56:30.062Z,62.56
2023-02-15T04:58:56.748Z,60.70
2023-02-15T05:01:23.475Z,59.90
2023-02-15T05:03:50.163Z,58.88
2023-02-15T05:06:16.860Z,58.97
2023-02-15T05:08:43.547Z,58.91
2023-02-15T05:11:10.263Z,59.75
2023-02-15T05:13:36.852Z,58.73
2023-02-15T05:16:04.050Z,60.60
2023-02-15T05:18:30.915Z,60.63
2023-02-15T05:20:57.521Z,61.64
2023-02-15T05:23:24.129Z,61.86
2023-02-15T05:25:51.749Z,62.29
2023-02-15T05:28:18.493Z,60.54
2023-02-15T05:30:45.331Z,60.65
2023-02-15T05:33:12.103Z,60.92
2023-02-15T05:35:38.780Z,59.87
2023-02-15T05:38:05.605Z,59.88
2023-02-15T05:40:32.394Z,59.26
2023-02-15T05:42:59.071Z,58.89
2023-02-15T05:45:26.198Z,59.62
2023-02-15T05:47:52.851Z,59.88
2023-02-15T05:50:19.525Z,59.51
2023-02-15T05:52:46.165Z,59.93
2023-02-15T05:55:12.798Z,59.29
2023-02-15T05:57:39.412Z,59.94
2023-02-15T06:00:06.882Z,61.02
2023-02-15T06:02:37.972Z,66.44
2023-02-15T06:05:06.196Z,66.24
2023-02-15T06:07:33.164Z,66.81
2023-02-15T06:10:00.202Z,68.45
2023-02-15T06:12:26.954Z,64.93
2023-02-15T06:14:53.556Z,63.05
2023-02-15T06:17:20.225Z,61.91
2023-02-15T06:19:46.901Z,62.83
2023-02-15T06:22:13.786Z,63.61
2023-02-15T06:24:41.185Z,63.52
2023-02-15T06:27:07.804Z,62.65
2023-02-15T06:29:34.385Z,63.32
2023-02-15T06:32:01.177Z,65.01
2023-02-15T06:34:27.877Z,63.72
2023-02-15T06:36:54.525Z,64.27
2023-02-15T06:39:21.169Z,65.46
2023-02-15T06:41:47.829Z,66.36
2023-02-15T06:44:14.453Z,66.42
2023-02-15T06:46:41.221Z,69.00
2023-02-15T06:49:07.885Z,68.39
2023-02-15T06:51:34.539Z,68.11
2023-02-15T06:54:01.224Z,67.95
2023-02-15T06:56:27.928Z,67.91
2023-02-15T06:58:54.644Z,67.20
2023-02-15T07:01:21.316Z,67.07
2023-02-15T07:03:47.992Z,68.29
2023-02-15T07:06:14.616Z,69.41
2023-02-15T07:08:41.225Z,68.73
2023-02-15T07:11:08.292Z,67.65
2023-02-15T07:13:34.986Z,66.74
2023-02-15T07:16:01.908Z,67.73
2023-02-15T07:18:28.737Z,68.73
2023-02-15T07:20:55.348Z,66.90
2023-02-15T07:23:21.968Z,66.05
2023-02-15T07:25:48.578Z,64.21
2023-02-15T07:28:15.225Z,62.24
2023-02-15T07:30:41.844Z,61.75
2023-02-15T07:33:08.592Z,60.64
2023-02-15T07:35:35.570Z,60.10
2023-02-15T07:38:02.321Z,59.87
2023-02-15T07:40:29.002Z,60.73
2023-02-15T07:42:59.256Z,60.48
2023-02-15T07:45:25.895Z,60.59
2023-02-15T07:47:52.645Z,60.90
2023-02-15T07:50:19.380Z,60.64
2023-02-15T07:52:46.046Z,60.49
2023-02-15T07:55:12.775Z,59.93
2023-02-15T07:57:43.345Z,59.30
2023-02-15T08:00:10.746Z,58.63
2023-02-15T08:02:37.414Z,56.66
2023-02-15T08:05:04.152Z,55.60
2023-02-15T08:07:30.760Z,54.76
2023-02-15T08:09:57.496Z,53.74
2023-02-15T08:12:26.510Z,53.15
2023-02-15T08:14:53.280Z,55.66
2023-02-15T08:17:20.214Z,54.86
2023-02-15T08:19:46.885Z,54.34
2023-02-15T08:22:15.265Z,53.96
2023-02-15T08:24:42.586Z,52.48
2023-02-15T08:27:11.464Z,51.53
2023-02-15T08:29:38.696Z,52.07
2023-02-15T08:32:08.904Z,52.64
2023-02-15T08:34:39.353Z,52.44
2023-02-15T08:37:06.363Z,54.04
2023-02-15T08:39:33.501Z,56.54
2023-02-15T08:42:00.734Z,57.03
2023-02-15T08:44:27.562Z,56.08
2023-02-15T08:46:54.319Z,57.62
2023-02-15T08:49:22.793Z,57.42
2023-02-15T08:51:50.303Z,56.99
2023-02-15T08:54:20.572Z,59.17
2023-02-15T08:56:48.173Z,60.29
2023-02-15T08:59:21.168Z,59.38
2023-02-15T09:01:50.535Z,60.41
2023-02-15T09:04:17.804Z,61.70
2023-02-15T09:06:48.291Z,61.31
2023-02-15T09:09:17.045Z,62.43
2023-02-15T09:11:46.053Z,62.38
2023-02-15T09:14:18.552Z,62.57
2023-02-15T09:16:46.812Z,63.86
2023-02-15T09:19:13.528Z,64.16
2023-02-15T09:21:40.337Z,64.37
2023-02-15T09:24:10.440Z,65.48
2023-02-15T09:26:40.192Z,65.98
2023-02-15T09:29:07.756Z,65.62
2023-02-15T09:31:39.712Z,65.26
2023-02-15T09:34:06.350Z,64.86
2023-02-15T09:36:35.652Z,64.51
2023-02-15T09:39:05.123Z,65.75
2023-02-15T09:41:49.859Z,64.79
2023-02-15T09:44:47.109Z,64.95
2023-02-15T09:47:22.818Z,65.62
2023-02-15T09:50:07.962Z,64.98
2023-02-15T09:52:49.267Z,63.84
2023-02-15T09:55:41.968Z,64.19
2023-02-15T09:58:53.393Z,64.33
2023-02-15T10:01:48.764Z,63.03
2023-02-15T10:04:30.459Z,61.89
2023-02-15T10:07:25.348Z,61.43
2023-02-15T10:10:01.262Z,63.41
2023-02-15T10:12:44.309Z,62.81
2023-02-15T10:15:32.781Z,62.99
2023-02-15T10:18:26.620Z,62.73
2023-02-15T10:21:17.849Z,60.11
2023-02-15T10:23:58.692Z,61.77
2023-02-15T10:26:43.803Z,61.01
2023-02-15T10:29:39.358Z,62.67
2023-02-15T10:32:18.111Z,62.46
2023-02-15T10:34:59.583Z,61.76
2023-02-15T10:37:53.330Z,59.48
2023-02-15T10:40:37.922Z,60.62
2023-02-15T10:43:31.403Z,61.01
2023-02-15T10:46:16.918Z,60.12
2023-02-15T10:49:11.797Z,60.17
2023-02-15T10:51:47.513Z,60.38
2023-02-15T10:54:40.897Z,60.29
2023-02-15T10:57:36.578Z,61.44
2023-02-15T11:00:03.486Z,61.01
2023-02-15T11:03:05.116Z,60.59
2023-02-15T11:05:40.770Z,60.82
2023-02-15T11:08:12.272Z,59.24
2023-02-15T11:10:42.938Z,59.74
2023-02-15T11:13:18.507Z,59.69
2023-02-15T11:15:56.142Z,60.21
2023-02-15T11:18:31.754Z,58.80
2023-02-15T11:21:13.784Z,59.45
2023-02-15T11:23:45.057Z,57.89
2023-02-15T11:26:20.148Z,57.08
2023-02-15T11:28:59.914Z,57.53
2023-02-15T11:31:32.728Z,56.83
2023-02-15T11:34:13.277Z,57.04
2023-02-15T11:36:43.063Z,58.42
2023-02-15T11:39:17.189Z,57.25
2023-02-15T11:41:53.196Z,56.95
2023-02-15T11:44:36.618Z,56.24
2023-02-15T11:47:03.783Z,56.47
2023-02-15T11:49:35.787Z,57.19
2023-02-15T11:52:08.101Z,56.88
2023-02-15T11:54:40.642Z,56.20
2023-02-15T11:57:14.913Z,54.62
2023-02-15T11:59:50.002Z,55.09
2023-02-15T12:02:22.532Z,55.07
2023-02-15T12:05:02.142Z,55.53
2023-02-15T12:07:53.499Z,55.79
2023-02-15T12:10:27.250Z,54.92
2023-02-15T12:13:13.653Z,54.18
2023-02-15T12:15:46.272Z,53.79
2023-02-15T12:18:37.217Z,54.52
2023-02-15T12:21:12.272Z,53.89
2023-02-15T12:23:52.862Z,54.23
2023-02-15T12:26:34.833Z,54.65
2023-02-15T12:29:23.409Z,54.96
2023-02-15T12:31:53.436Z,54.40
2023-02-15T12:34:27.408Z,53.95
2023-02-15T12:36:58.393Z,54.52
2023-02-15T12:39:30.963Z,54.14
2023-02-15T12:42:15.893Z,53.64
2023-02-15T12:45:21.307Z,54.20
2023-02-15T12:48:13.957Z,54.48
2023-02-15T12:50:41.921Z,54.05
2023-02-15T12:53:18.142Z,53.78
2023-02-15T12:56:11.460Z,53.89
2023-02-15T12:58:42.099Z,54.46
2023-02-15T13:01:16.728Z,54.06
2023-02-15T13:04:02.268Z,53.21
2023-02-15T13:06:32.369Z,53.34
2023-02-15T13:09:21.117Z,51.75
2023-02-15T13:11:48.241Z,52.88
2023-02-15T13:14:29.625Z,52.12
2023-02-15T13:17:01.609Z,52.77
2023-02-15T13:19:36.617Z,53.18
2023-02-15T13:22:08.901Z,53.46
2023-02-15T13:24:59.026Z,50.58
2023-02-15T13:27:39.745Z,49.57
2023-02-15T13:30:26.348Z,50.03
2023-02-15T13:32:59.043Z,49.29
2023-02-15T13:35:35.884Z,49.34
2023-02-15T13:38:24.901Z,49.04
2023-02-15T13:41:10.284Z,47.58
2023-02-15T13:43:47.501Z,48.41
2023-02-15T13:46:49.516Z,46.50
2023-02-15T13:49:39.506Z,47.33
2023-02-15T13:52:23.871Z,44.18
2023-02-15T13:55:09.236Z,46.81
2023-02-15T13:58:18.413Z,47.77
2023-02-15T14:00:47.873Z,46.96
2023-02-15T14:03:23.234Z,46.47
2023-02-15T14:06:08.160Z,47.01
2023-02-15T14:08:56.351Z,45.46
2023-02-15T14:11:49.484Z,42.50
2023-02-15T14:14:36.378Z,42.37
2023-02-15T14:17:49.474Z,40.99
2023-02-15T14:20:25.950Z,41.17
2023-02-15T14:23:05.842Z,41.94
2023-02-15T14:25:45.807Z,40.19
2023-02-15T14:28:20.498Z,39.39
2023-02-15T14:30:51.892Z,37.94
2023-02-15T14:33:55.849Z,43.61
2023-02-15T14:36:26.013Z,45.76
2023-02-15T14:39:18.857Z,45.85
2023-02-15T14:41:57.913Z,46.33
2023-02-15T14:44:40.373Z,46.19
2023-02-15T14:47:20.397Z,46.06
2023-02-15T14:49:47.060Z,47.46
2023-02-15T14:52:13.996Z,46.92
2023-02-15T14:54:40.568Z,46.29
2023-02-15T14:57:07.127Z,45.19
2023-02-15T14:59:55.670Z,46.21
2023-02-15T15:02:43.202Z,47.24
2023-02-15T15:05:56.160Z,47.66
2023-02-15T15:08:35.412Z,48.06
2023-02-15T15:11:42.604Z,48.53
2023-02-15T15:14:31.193Z,49.56
2023-02-15T15:16:59.978Z,49.00
2023-02-15T15:20:06.544Z,47.25
2023-02-15T15:22:34.702Z,46.30
2023-02-15T15:25:02.915Z,46.59
2023-02-15T15:27:46.379Z,47.19
2023-02-15T15:30:15.967Z,45.94
2023-02-15T15:32:54.455Z,44.73
2023-02-15T15:35:33.095Z,42.93
2023-02-15T15:38:42.005Z,42.10
2023-02-15T15:41:48.657Z,42.37
2023-02-15T15:44:31.982Z,41.74
2023-02-15T15:47:29.083Z,41.14
2023-02-15T15:50:00.417Z,41.18
2023-02-15T15:52:29.671Z,40.99
2023-02-15T15:55:05.121Z,40.85
2023-02-15T15:57:45.416Z,41.23
2023-02-15T16:00:37.709Z,42.22
2023-02-15T16:03:05.552Z,42.20
2023-02-15T16:05:37.775Z,42.60
2023-02-15T16:08:04.880Z,42.53
2023-02-15T16:10:34.203Z,43.09
2023-02-15T16:13:02.756Z,43.13
2023-02-15T16:15:35.642Z,43.74
2023-02-15T16:18:03.150Z,44.18
2023-02-15T16:20:33.902Z,43.80
2023-02-15T16:23:37.547Z,43.87
2023-02-15T16:26:32.731Z,43.50
2023-02-15T16:28:59.716Z,43.26
2023-02-15T16:31:28.070Z,43.10
2023-02-15T16:33:56.532Z,46.16
2023-02-15T16:36:26.020Z,47.56
2023-02-15T16:38:52.575Z,47.60
2023-02-15T16:41:26.596Z,48.73
2023-02-15T16:43:56.553Z,48.35
2023-02-15T16:46:32.295Z,47.73
2023-02-15T16:49:07.088Z,47.23
2023-02-15T16:51:36.463Z,47.42
2023-02-15T16:54:09.113Z,48.58
2023-02-15T16:56:36.465Z,49.65
2023-02-15T16:59:03.359Z,49.56
2023-02-15T17:01:33.668Z,49.08
2023-02-15T17:04:31.918Z,48.14
2023-02-15T17:07:04.507Z,48.50
2023-02-15T17:09:31.860Z,48.99
2023-02-15T17:11:58.598Z,49.08
2023-02-15T17:14:30.297Z,48.89
2023-02-15T17:17:02.904Z,48.92
2023-02-15T17:19:33.645Z,48.08
2023-02-15T17:22:05.242Z,49.46
2023-02-15T17:24:31.784Z,48.24
2023-02-15T17:27:20.835Z,47.72
2023-02-15T17:29:53.019Z,48.95
2023-02-15T17:32:24.055Z,49.63
2023-02-15T17:35:20.362Z,46.79
2023-02-15T17:37:50.680Z,46.11
2023-02-15T17:40:27.579Z,44.46
2023-02-15T17:42:54.359Z,46.04
2023-02-15T17:45:24.990Z,45.94
2023-02-15T17:47:52.057Z,44.29
2023-02-15T17:50:26.311Z,45.77
2023-02-15T17:52:55.464Z,45.49
2023-02-15T17:55:24.354Z,44.76
2023-02-15T17:57:50.996Z,45.65
2023-02-15T18:00:17.889Z,45.46
2023-02-15T18:02:45.913Z,46.14
2023-02-15T18:05:16.319Z,46.01
2023-02-15T18:07:42.990Z,45.58
2023-02-15T18:10:17.739Z,47.28
2023-02-15T18:12:44.430Z,48.00
2023-02-15T18:15:12.926Z,47.73
2023-02-15T18:17:45.530Z,48.21
2023-02-15T18:20:18.317Z,47.86
2023-02-15T18:22:45.570Z,46.92
2023-02-15T18:25:17.839Z,46.55
2023-02-15T18:27:45.169Z,46.69
2023-02-15T18:30:22.303Z,47.11
2023-02-15T18:32:52.662Z,46.07
2023-02-15T18:35:24.474Z,47.48
2023-02-15T18:37:54.436Z,47.40
2023-02-15T18:40:24.710Z,46.41
2023-02-15T18:42:51.348Z,48.21
2023-02-15T18:45:27.134Z,48.18
2023-02-15T18:47:54.411Z,47.50
2023-02-15T18:50:23.539Z,48.25
2023-02-15T18:52:51.082Z,48.54
2023-02-15T18:55:19.104Z,48.11
2023-02-15T18:57:47.337Z,49.14
2023-02-15T19:00:19.828Z,49.70
2023-02-15T19:02:48.922Z,49.44
2023-02-15T19:05:15.827Z,49.37
2023-02-15T19:07:42.591Z,50.06
2023-02-15T19:10:17.336Z,49.42
2023-02-15T19:12:44.597Z,49.78
2023-02-15T19:15:20.408Z,50.88
2023-02-15T19:17:47.318Z,50.33
2023-02-15T19:20:39.258Z,50.21
2023-02-15T19:23:11.726Z,49.23
2023-02-15T19:25:39.953Z,49.93
2023-02-15T19:28:15.214Z,51.33
2023-02-15T19:30:41.847Z,53.01
2023-02-15T19:33:20.382Z,52.06
2023-02-15T19:35:52.322Z,51.17
2023-02-15T19:38:25.184Z,50.21
2023-02-15T19:40:52.028Z,50.27
2023-02-15T19:43:23.987Z,50.02
2023-02-15T19:45:52.462Z,49.62
2023-02-15T19:48:19.764Z,50.14
2023-02-15T19:50:47.538Z,50.55
2023-02-15T19:53:22.232Z,51.54
2023-02-15T19:55:49.634Z,52.46
2023-02-15T19:58:17.160Z,55.76
2023-02-15T20:00:47.194Z,54.42
2023-02-15T20:03:15.121Z,52.86
2023-02-15T20:05:43.338Z,52.16
2023-02-15T20:08:18.875Z,51.23
2023-02-15T20:10:45.862Z,52.32
2023-02-15T20:13:17.450Z,51.72
2023-02-15T20:15:45.144Z,53.54
2023-02-15T20:18:12.513Z,53.88
2023-02-15T20:20:50.535Z,53.36
2023-02-15T20:23:31.318Z,54.25
2023-02-15T20:26:00.405Z,54.60
2023-02-15T20:28:30.996Z,54.16
2023-02-15T20:30:58.039Z,53.10
2023-02-15T20:33:40.089Z,54.06
2023-02-15T20:36:06.998Z,55.79
2023-02-15T20:38:33.646Z,54.10
2023-02-15T20:41:01.430Z,53.50
2023-02-15T20:43:28.174Z,52.66
2023-02-15T20:45:54.833Z,54.16
2023-02-15T20:48:21.518Z,53.56
2023-02-15T20:50:48.682Z,53.43
2023-02-15T20:53:15.546Z,54.45
2023-02-15T20:55:42.157Z,53.63
2023-02-15T20:58:20.987Z,56.29
2023-02-15T21:00:48.473Z,54.73
2023-02-15T21:03:21.076Z,55.01
2023-02-15T21:05:47.828Z,54.01
2023-02-15T21:08:17.201Z,54.32
2023-02-15T21:10:46.127Z,53.46
2023-02-15T21:13:30.712Z,53.34
2023-02-15T21:15:58.457Z,52.91
2023-02-15T21:18:31.329Z,53.17
2023-02-15T21:21:01.566Z,52.37
2023-02-15T21:23:40.677Z,53.10
2023-02-15T21:26:19.386Z,53.73
2023-02-15T21:28:46.842Z,53.29
2023-02-15T21:31:19.489Z,54.41
2023-02-15T21:33:46.341Z,54.98
2023-02-15T21:36:20.451Z,54.18
2023-02-15T21:38:48.694Z,54.64
2023-02-15T21:41:21.978Z,54.75
2023-02-15T21:43:48.656Z,54.95
2023-02-15T21:46:18.496Z,55.74
2023-02-15T21:48:45.144Z,55.71
2023-02-15T21:51:11.886Z,54.54
2023-02-15T21:53:46.664Z,56.04
2023-02-15T21:56:19.821Z,55.09
2023-02-15T21:58:47.307Z,53.64
2023-02-15T22:01:26.914Z,56.86
2023-02-15T22:03:55.883Z,56.04
2023-02-15T22:06:22.838Z,55.12
2023-02-15T22:08:49.783Z,56.74
2023-02-15T22:11:19.777Z,57.60
2023-02-15T22:13:48.441Z,56.66
2023-02-15T22:16:22.675Z,56.89
2023-02-15T22:18:49.397Z,56.31
2023-02-15T22:21:16.045Z,54.45
2023-02-15T22:23:43.047Z,55.35
2023-02-15T22:26:19.017Z,55.92
2023-02-15T22:28:45.725Z,57.15
2023-02-15T22:31:18.671Z,55.79
2023-02-15T22:33:45.343Z,55.68
2023-02-15T22:36:23.871Z,56.07
2023-02-15T22:38:51.051Z,56.12
2023-02-15T22:41:18.035Z,57.96
2023-02-15T22:43:47.413Z,59.22
2023-02-15T22:46:17.576Z,58.73
2023-02-15T22:48:46.185Z,58.00
2023-02-15T22:51:14.578Z,58.83
2023-02-15T22:53:41.802Z,58.24
2023-02-15T22:56:19.152Z,57.16
2023-02-15T22:58:47.138Z,56.64
2023-02-15T23:01:26.409Z,57.79
2023-02-15T23:03:53.120Z,58.04
2023-02-15T23:06:19.790Z,57.41
2023-02-15T23:08:46.442Z,55.28
2023-02-15T23:11:13.166Z,56.39
2023-02-15T23:13:39.909Z,60.25
2023-02-15T23:16:12.829Z,60.13
2023-02-15T23:18:42.799Z,61.30
2023-02-15T23:21:15.597Z,59.84
2023-02-15T23:23:45.777Z,60.21
2023-02-15T23:26:24.080Z,56.86
2023-02-15T23:28:52.148Z,56.70
2023-02-15T23:31:23.596Z,56.64
2023-02-15T23:33:51.995Z,57.44
2023-02-15T23:36:29.354Z,55.25
2023-02-15T23:38:59.378Z,54.19
2023-02-15T23:41:30.031Z,52.88
2023-02-15T23:44:00.490Z,53.86
2023-02-15T23:46:56.677Z,52.58
2023-02-15T23:49:23.866Z,53.76
2023-02-15T23:51:55.874Z,53.96
2023-02-15T23:54:25.534Z,56.07
2023-02-15T23:57:01.814Z,54.47
2023-02-15T23:59:31.485Z,54.34
